Portada
METAR-TAF:

METAR-TAF

Aeroports :

Odessa, Ucraïna

latitud: 46-26N, longitud: 030-46E, altitud: 42 m

Observació

L'informe es va fer fa 23 minuts, a les 05:00 UTC
Vent 10 kt del Est
Temperatura 4°C
Humitat 100%
Pressió 1025 hPa
Visibilitat: 7000 m
Cel cobert a una alçada de 400 ft

METAR: UKOO 050500Z 08005MPS 7000 OVC004 04/04 Q1025 R16/190058 NOSIG

Hora: 07:23 (05:23 UTC)

Pronòstic

L'informe es va fer fa 6 hores i 19 minuts, a les 23:04 UTC
Pronòstic vàlid del 05 a les 00 UTC al 05 a les 24 UTC
Vent 16 kt del Est amb ràfegues de 27 kt
Visibilitat: 2100 m
Cel cobert a una alçada de 300 ft
boirina
Temporalment
l' 05 a les 00 UTC al 05 a les 07 UTC
Visibilitat: 0300 m
a una alçada de 100 ft
plugim, boira
Evolucionant progressivament
l' 05 a les 07 UTC al 05 a les 08 UTC
Cel cobert a una alçada de 500 ft

TAF: UKOO 042304Z 0500/0524 10008G14MPS 2100 BR OVC003 TX07/0512Z TN02/0503Z TEMPO 0500/0507 0300 -DZ FG VV001 BECMG 0507/0508 OVC005

Observacions i pronòstics meteorològics de més de 4000 aeroports (METAR i TAF).

Les estacions disponibles són els punts grocs i vermells al mapa.

Posi el ratolí al punt desitjat per veure el nom de l'estació.

Feu clic per veure les observacions i els pronòstics meteorològics.

Per canviar el mapa: feu clic els botons verds amb una creu de color negre per apropar; al botó verd amb un guió per allunyar la imatge; o en les fletxes verdes per a mapes adjacents.


METAR-TAF: